Terminal Aerodrome Forecast
Issued by NWS

Home | Current Version | Previous Version | Text Only | Print | Product List | Glossary Off
Versions: 1 2 3 4 5 6 7 8 9 10 11 12 13 14 15

000
FTUS43 KBIS 281100
TAFDIK
TAF
KDIK 281132Z 2812/2912 18006KT P6SM FEW035
     FM282000 06005KT P6SM SCT050
     FM290200 10007KT P6SM SKC
     FM290600 15007KT P6SM SKC=

USA.gov is the U.S. government's official web portal to all federal, state and local government web resources and services.